Idaho Falls, Idaho
Current Conditions -  °F | °C
As of 10:53 PM on Wednesday 22 Oct 2014 (Local Time) from KIDA Reporting Station
Clear Clear  
Wind Chill:   Ceiling: Unl
Heat Index:   Visibility: 10mi
Dew Point: -2°   Wind: 0mph
Humidity: 76%   Direction: NA
Pressure: 30.14"   Gusts: NA
Location:  43.49°N, 112.04°W
Report Text: KIDA 230453Z 00000KT 10SM CLR 02/M02 A3014 RMK AO2 SLP212 T00221017
Loading
Personal Weather Stations






























Interactive Weather Map
Tropical Storm Tracking
New forecast layout! Learn more

10-Day Weather Forecast

Advertisements
Track Severe Weather on mobile